createdAt,value
2019-05-20T00:02:25.930Z,10.80
2019-05-20T00:07:15.317Z,11.17
2019-05-20T00:12:11.243Z,11.70
2019-05-20T00:17:07.306Z,11.40
2019-05-20T00:22:03.335Z,11.33
2019-05-20T00:26:59.259Z,11.43
2019-05-20T00:31:55.195Z,12.20
2019-05-20T00:36:51.116Z,12.63
2019-05-20T00:41:47.848Z,13.07
2019-05-20T00:46:43.787Z,13.33
2019-05-20T00:51:40.731Z,14.00
2019-05-20T00:56:36.754Z,12.43
2019-05-20T01:01:32.898Z,13.40
2019-05-20T01:06:28.828Z,13.30
2019-05-20T01:11:24.763Z,13.50
2019-05-20T01:16:20.725Z,13.77
2019-05-20T01:21:16.748Z,13.60
2019-05-20T01:26:12.830Z,14.30
2019-05-20T01:31:09.047Z,15.47
2019-05-20T01:36:04.977Z,15.60
2019-05-20T01:41:01.415Z,14.30
2019-05-20T01:45:57.358Z,15.57
2019-05-20T01:50:53.290Z,15.70
2019-05-20T01:55:49.219Z,14.00
2019-05-20T02:00:45.149Z,15.43
2019-05-20T02:05:41.073Z,14.93
2019-05-20T02:10:37.011Z,13.90
2019-05-20T02:15:40.913Z,17.43
2019-05-20T02:20:36.880Z,16.27
2019-05-20T02:25:32.774Z,16.60
2019-05-20T02:30:28.799Z,16.23
2019-05-20T02:35:24.729Z,17.07
2019-05-20T02:40:20.764Z,15.30
2019-05-20T02:45:16.921Z,16.73
2019-05-20T02:50:12.954Z,15.03
2019-05-20T02:55:08.997Z,14.10
2019-05-20T03:00:08.514Z,15.30
2019-05-20T03:05:07.674Z,14.77
2019-05-20T03:10:05.519Z,15.67
2019-05-20T03:15:02.357Z,13.90
2019-05-20T03:19:58.284Z,14.67
2019-05-20T03:24:54.218Z,16.47
2019-05-20T03:29:50.251Z,13.73
2019-05-20T03:34:54.012Z,15.60
2019-05-20T03:39:44.029Z,15.87
2019-05-20T03:44:39.986Z,15.57
2019-05-20T03:49:35.911Z,17.60
2019-05-20T03:54:31.848Z,20.07
2019-05-20T03:59:27.791Z,20.40
2019-05-20T04:04:25.157Z,21.40
2019-05-20T04:09:22.113Z,21.37
2019-05-20T04:14:18.115Z,23.07
2019-05-20T04:19:14.036Z,21.70
2019-05-20T04:24:10.185Z,21.37
2019-05-20T04:29:06.133Z,22.53
2019-05-20T04:34:02.165Z,21.60
2019-05-20T04:39:03.243Z,23.00
2019-05-20T04:43:59.214Z,20.20
2019-05-20T04:48:55.159Z,19.77
2019-05-20T04:53:51.080Z,22.50
2019-05-20T04:58:47.007Z,24.27
2019-05-20T05:03:42.936Z,27.57
2019-05-20T05:08:46.407Z,25.70
2019-05-20T05:13:42.430Z,26.30
2019-05-20T05:18:38.362Z,28.80
2019-05-20T05:23:34.398Z,26.90
2019-05-20T05:28:30.332Z,27.10
2019-05-20T05:33:26.267Z,28.30
2019-05-20T05:38:24.678Z,30.97
2019-05-20T05:43:26.730Z,28.43
2019-05-20T05:48:23.364Z,29.20
2019-05-20T05:53:19.293Z,31.27
2019-05-20T05:58:15.245Z,30.00
2019-05-20T06:03:11.229Z,29.27
2019-05-20T06:08:07.162Z,29.80
2019-05-20T06:13:03.337Z,27.43
2019-05-20T06:17:59.315Z,30.23
2019-05-20T06:22:55.619Z,31.37
2019-05-20T06:27:51.545Z,32.20
2019-05-20T06:32:47.475Z,31.33
2019-05-20T06:37:48.499Z,33.53
2019-05-20T06:42:44.527Z,39.83
2019-05-20T06:47:41.264Z,40.77
2019-05-20T06:52:37.208Z,39.97
2019-05-20T06:57:33.125Z,39.60
2019-05-20T07:02:29.063Z,39.90
2019-05-20T07:07:24.988Z,41.90
2019-05-20T07:12:20.932Z,40.87
2019-05-20T07:17:16.857Z,41.50
2019-05-20T07:22:12.778Z,48.23
2019-05-20T07:27:08.705Z,45.70
2019-05-20T07:32:04.641Z,45.23
2019-05-20T07:37:03.836Z,43.47
2019-05-20T07:41:58.490Z,44.33
2019-05-20T07:46:54.600Z,46.53
2019-05-20T07:51:50.810Z,39.23
2019-05-20T07:56:48.542Z,47.07
2019-05-20T08:01:44.466Z,52.13
2019-05-20T08:06:40.393Z,51.80
2019-05-20T08:11:36.327Z,48.80
2019-05-20T08:16:32.655Z,49.20
2019-05-20T08:21:28.580Z,44.70
2019-05-20T08:26:24.622Z,45.53
2019-05-20T08:31:20.547Z,48.73
2019-05-20T08:36:16.484Z,48.30
2019-05-20T08:41:12.421Z,48.70
2019-05-20T08:46:08.391Z,51.60
2019-05-20T08:51:04.314Z,49.33
2019-05-20T08:56:00.283Z,51.37
2019-05-20T09:00:56.379Z,49.00
2019-05-20T09:05:52.305Z,48.83
2019-05-20T09:10:48.240Z,53.73
2019-05-20T09:15:45.427Z,51.80
2019-05-20T09:20:41.941Z,51.60
2019-05-20T09:25:37.928Z,50.53
2019-05-20T09:30:33.866Z,50.93
2019-05-20T09:35:29.996Z,47.10
2019-05-20T09:40:57.014Z,50.50
2019-05-20T09:46:06.210Z,50.97
2019-05-20T09:50:51.802Z,53.10
2019-05-20T09:55:47.727Z,51.07
2019-05-20T10:00:44.958Z,52.37
2019-05-20T10:05:40.919Z,52.47
2019-05-20T10:10:36.830Z,50.13
2019-05-20T10:15:32.952Z,53.70
2019-05-20T10:20:28.875Z,52.20
2019-05-20T10:25:24.920Z,48.80
2019-05-20T10:30:20.952Z,50.83
2019-05-20T10:35:16.892Z,49.60
2019-05-20T10:40:19.499Z,47.50
2019-05-20T10:45:18.754Z,49.27
2019-05-20T10:50:15.009Z,49.37
2019-05-20T10:55:11.626Z,45.23
2019-05-20T11:00:08.060Z,44.70
2019-05-20T11:05:05.200Z,45.90
2019-05-20T11:10:01.345Z,44.90
2019-05-20T11:14:57.265Z,45.40
2019-05-20T11:19:53.200Z,43.00
2019-05-20T11:24:49.196Z,42.43
2019-05-20T11:29:45.126Z,42.50
2019-05-20T11:34:41.095Z,44.20
2019-05-20T11:39:37.093Z,40.20
2019-05-20T11:44:33.044Z,40.97
2019-05-20T11:49:29.510Z,39.60
2019-05-20T11:54:25.556Z,43.27
2019-05-20T11:59:21.490Z,40.60
2019-05-20T12:04:17.418Z,41.20
2019-05-20T12:09:14.629Z,36.23
2019-05-20T12:14:10.626Z,36.80
2019-05-20T12:19:06.555Z,39.90
2019-05-20T12:24:02.595Z,40.57
2019-05-20T12:28:58.523Z,39.97
2019-05-20T12:33:54.455Z,41.37
2019-05-20T12:38:53.337Z,36.70
2019-05-20T12:44:09.962Z,38.50
2019-05-20T12:48:47.654Z,37.50
2019-05-20T12:53:43.614Z,29.93
2019-05-20T12:58:40.149Z,37.87
2019-05-20T13:03:36.087Z,41.17
2019-05-20T13:08:47.018Z,35.43
2019-05-20T13:13:43.148Z,40.87
2019-05-20T13:18:53.473Z,39.87
2019-05-20T13:23:37.043Z,40.53
2019-05-20T13:28:33.021Z,40.63
2019-05-20T13:33:29.308Z,32.67
2019-05-20T13:38:26.189Z,41.23
2019-05-20T13:43:22.217Z,38.57
2019-05-20T13:48:18.199Z,41.57
2019-05-20T13:53:14.160Z,39.43
2019-05-20T13:58:10.790Z,35.73
2019-05-20T14:03:06.985Z,44.47
2019-05-20T14:08:03.130Z,41.33
2019-05-20T14:12:59.129Z,40.77
2019-05-20T14:17:55.049Z,39.10
2019-05-20T14:22:51.049Z,37.83
2019-05-20T14:27:47.056Z,38.63
2019-05-20T14:32:43.127Z,42.17
2019-05-20T14:37:39.043Z,27.30
2019-05-20T14:42:35.588Z,40.10
2019-05-20T14:47:31.531Z,40.67
2019-05-20T14:52:32.760Z,42.10
2019-05-20T14:57:33.966Z,40.50
2019-05-20T15:02:37.595Z,43.80
2019-05-20T15:07:40.553Z,36.97
2019-05-20T15:17:56.849Z,44.83
2019-05-20T15:22:53.498Z,27.37
2019-05-20T15:27:50.518Z,44.93
2019-05-20T15:32:46.547Z,37.73
2019-05-20T15:37:44.567Z,48.10
2019-05-20T15:42:41.482Z,32.60
2019-05-20T15:47:37.546Z,49.03
2019-05-20T15:52:34.134Z,43.10
2019-05-20T15:57:30.063Z,46.27
2019-05-20T16:02:26.001Z,45.17
2019-05-20T16:07:22.034Z,46.53
2019-05-20T16:12:17.969Z,44.60
2019-05-20T16:17:14.070Z,46.70
2019-05-20T16:22:10.005Z,44.17
2019-05-20T16:27:06.186Z,48.33
2019-05-20T16:32:02.378Z,45.10
2019-05-20T16:36:58.333Z,44.13
2019-05-20T16:41:55.000Z,45.93
2019-05-20T16:46:51.051Z,40.40
2019-05-20T16:51:48.939Z,50.47
2019-05-20T16:56:47.775Z,48.73
2019-05-20T17:01:46.539Z,43.70
2019-05-20T17:06:42.503Z,46.30
2019-05-20T17:11:38.516Z,44.23
2019-05-20T17:16:34.438Z,43.17
2019-05-20T17:21:30.957Z,40.50
2019-05-20T17:26:26.927Z,44.07
2019-05-20T17:31:22.964Z,47.17
2019-05-20T17:36:18.899Z,44.47
2019-05-20T17:41:14.828Z,39.23
2019-05-20T17:46:10.951Z,30.63
2019-05-20T17:51:06.883Z,28.57
2019-05-20T17:56:03.056Z,26.40
2019-05-20T18:01:13.801Z,26.60
2019-05-20T18:05:57.604Z,30.53
2019-05-20T18:10:53.636Z,27.77
2019-05-20T18:15:49.558Z,24.57
2019-05-20T18:20:45.498Z,41.40
2019-05-20T18:25:42.549Z,43.83
2019-05-20T18:30:38.479Z,48.77
2019-05-20T18:35:34.416Z,44.90
2019-05-20T18:40:30.450Z,45.07
2019-05-20T18:45:26.420Z,45.77
2019-05-20T18:50:23.494Z,39.47
2019-05-20T18:55:19.416Z,45.23
2019-05-20T19:00:17.384Z,44.77
2019-05-20T19:05:13.612Z,41.87
2019-05-20T19:10:09.860Z,43.10
2019-05-20T19:15:06.123Z,45.23
2019-05-20T19:20:03.443Z,44.27
2019-05-20T19:24:59.414Z,38.27
2019-05-20T19:29:55.505Z,39.57
2019-05-20T19:34:51.435Z,42.03
2019-05-20T19:39:47.367Z,44.73
2019-05-20T19:44:43.327Z,44.27
2019-05-20T19:49:42.322Z,45.07
2019-05-20T19:54:37.193Z,41.20
2019-05-20T19:59:33.119Z,44.63
2019-05-20T20:04:29.050Z,47.03
2019-05-20T20:09:25.592Z,43.90
2019-05-20T20:14:21.488Z,42.60
2019-05-20T20:19:17.416Z,45.97
2019-05-20T20:24:13.344Z,40.07
2019-05-20T20:29:11.135Z,38.70
2019-05-20T20:34:07.104Z,43.67
2019-05-20T20:39:06.988Z,42.80
2019-05-20T20:44:03.116Z,35.50
2019-05-20T20:48:59.141Z,36.17
2019-05-20T20:53:55.066Z,32.13
2019-05-20T20:58:51.051Z,40.33
2019-05-20T21:03:46.957Z,39.87
2019-05-20T21:08:48.798Z,32.03
2019-05-20T21:13:44.824Z,41.73
2019-05-20T21:18:41.180Z,39.10
2019-05-20T21:23:38.060Z,34.23
2019-05-20T21:28:35.951Z,35.47
2019-05-20T21:33:31.915Z,31.27
2019-05-20T21:38:28.967Z,32.97
2019-05-20T21:43:25.035Z,32.83
2019-05-20T21:48:20.984Z,36.93
2019-05-20T21:53:16.895Z,34.33
2019-05-20T21:58:12.823Z,29.83
2019-05-20T22:03:23.253Z,31.97
2019-05-20T22:08:06.690Z,35.27
2019-05-20T22:13:02.715Z,35.63
2019-05-20T22:17:58.642Z,33.40
2019-05-20T22:28:14.714Z,25.80
2019-05-20T22:33:10.633Z,33.63
2019-05-20T22:38:06.591Z,23.27
2019-05-20T22:43:02.609Z,36.00
2019-05-20T22:47:58.560Z,28.97
2019-05-20T22:52:54.487Z,34.77
2019-05-20T22:57:50.410Z,33.60
2019-05-20T23:02:46.333Z,41.30
2019-05-20T23:07:42.256Z,41.73
2019-05-20T23:12:38.275Z,39.70
2019-05-20T23:17:34.201Z,35.87
2019-05-20T23:22:30.122Z,38.97
2019-05-20T23:27:26.043Z,42.23
2019-05-20T23:32:21.962Z,40.10
2019-05-20T23:37:17.884Z,37.73
2019-05-20T23:42:14.658Z,36.40
2019-05-20T23:47:10.657Z,42.67
2019-05-20T23:52:06.640Z,43.47
2019-05-20T23:57:02.647Z,33.63
